createdAt,value
2022-10-01T00:01:17.636Z,15.50
2022-10-01T00:03:47.777Z,15.10
2022-10-01T00:06:20.455Z,17.38
2022-10-01T00:08:49.936Z,16.50
2022-10-01T00:11:18.148Z,16.38
2022-10-01T00:13:46.155Z,17.25
2022-10-01T00:16:21.985Z,21.23
2022-10-01T00:18:49.569Z,18.63
2022-10-01T00:21:23.060Z,18.98
2022-10-01T00:24:01.601Z,15.40
2022-10-01T00:26:34.136Z,17.45
2022-10-01T00:29:04.482Z,17.92
2022-10-01T00:31:32.294Z,19.80
2022-10-01T00:34:02.686Z,19.27
2022-10-01T00:36:30.622Z,18.63
2022-10-01T00:39:02.111Z,20.05
2022-10-01T00:41:32.281Z,18.63
2022-10-01T00:44:02.532Z,16.60
2022-10-01T00:46:40.724Z,18.73
2022-10-01T00:49:15.098Z,19.77
2022-10-01T00:51:46.954Z,23.95
2022-10-01T00:54:19.446Z,18.00
2022-10-01T00:56:47.331Z,17.48
2022-10-01T00:59:16.278Z,19.45
2022-10-01T01:01:43.507Z,19.40
2022-10-01T01:04:16.786Z,18.13
2022-10-01T01:06:57.507Z,17.00
2022-10-01T01:09:30.114Z,15.77
2022-10-01T01:12:15.888Z,16.30
2022-10-01T01:14:45.167Z,17.83
2022-10-01T01:17:19.614Z,14.50
2022-10-01T01:20:07.722Z,17.02
2022-10-01T01:22:42.660Z,16.02
2022-10-01T01:25:20.059Z,14.18
2022-10-01T01:27:59.903Z,15.75
2022-10-01T01:30:27.057Z,18.42
2022-10-01T01:33:09.359Z,19.02
2022-10-01T01:35:48.217Z,18.73
2022-10-01T01:38:20.307Z,18.17
2022-10-01T01:40:51.539Z,17.50
2022-10-01T01:43:24.258Z,18.00
2022-10-01T01:45:55.152Z,17.25
2022-10-01T01:48:24.426Z,17.20
2022-10-01T01:50:57.615Z,16.48
2022-10-01T01:53:26.055Z,17.92
2022-10-01T01:55:53.865Z,17.17
2022-10-01T01:58:20.648Z,17.85
2022-10-01T02:00:54.617Z,16.85
2022-10-01T02:03:24.779Z,16.08
2022-10-01T02:06:06.248Z,17.35
2022-10-01T02:08:41.239Z,15.88
2022-10-01T02:11:22.059Z,15.32
2022-10-01T02:14:12.438Z,16.23
2022-10-01T02:16:50.429Z,13.93
2022-10-01T02:19:22.106Z,16.75
2022-10-01T02:22:10.224Z,16.17
2022-10-01T02:24:43.467Z,15.07
2022-10-01T02:27:19.054Z,13.25
2022-10-01T02:29:46.455Z,16.52
2022-10-01T02:32:15.992Z,19.30
2022-10-01T02:34:45.396Z,13.52
2022-10-01T02:37:12.662Z,15.88
2022-10-01T02:39:42.403Z,15.70
2022-10-01T02:42:14.495Z,18.70
2022-10-01T02:44:45.037Z,15.07
2022-10-01T02:47:34.144Z,17.38
2022-10-01T02:50:06.155Z,15.90
2022-10-01T02:52:53.682Z,16.65
2022-10-01T02:55:28.671Z,15.13
2022-10-01T02:57:56.742Z,14.98
2022-10-01T03:00:25.170Z,17.25
2022-10-01T03:02:51.953Z,15.98
2022-10-01T03:05:19.575Z,15.68
2022-10-01T03:07:48.107Z,16.83
2022-10-01T03:10:16.171Z,16.92
2022-10-01T03:12:45.200Z,17.77
2022-10-01T03:15:14.048Z,16.48
2022-10-01T03:17:40.907Z,15.88
2022-10-01T03:20:08.085Z,15.32
2022-10-01T03:22:35.136Z,18.55
2022-10-01T03:25:01.938Z,17.35
2022-10-01T03:27:28.720Z,19.10
2022-10-01T03:29:55.793Z,16.45
2022-10-01T03:32:22.519Z,17.65
2022-10-01T03:34:49.279Z,19.63
2022-10-01T03:37:16.258Z,18.42
2022-10-01T03:39:43.086Z,20.73
2022-10-01T03:42:09.851Z,19.60
2022-10-01T03:44:36.799Z,21.98
2022-10-01T03:47:03.641Z,19.67
2022-10-01T03:49:30.404Z,20.77
2022-10-01T03:51:57.996Z,22.95
2022-10-01T03:54:25.503Z,22.30
2022-10-01T03:56:52.569Z,18.00
2022-10-01T03:59:19.975Z,18.13
2022-10-01T04:01:46.862Z,16.65
2022-10-01T04:04:13.663Z,18.05
2022-10-01T04:06:41.025Z,18.15
2022-10-01T04:09:09.726Z,20.52
2022-10-01T04:11:37.304Z,17.65
2022-10-01T04:14:04.553Z,16.98
2022-10-01T04:16:34.857Z,21.08
2022-10-01T04:19:03.459Z,21.17
2022-10-01T04:21:30.688Z,20.95
2022-10-01T04:23:57.515Z,19.63
2022-10-01T04:26:24.949Z,19.48
2022-10-01T04:28:51.848Z,15.65
2022-10-01T04:31:24.556Z,16.50
2022-10-01T04:33:56.319Z,21.40
2022-10-01T04:36:24.387Z,17.70
2022-10-01T04:38:54.684Z,17.75
2022-10-01T04:41:23.943Z,17.95
2022-10-01T04:43:50.956Z,19.77
2022-10-01T04:46:18.558Z,16.90
2022-10-01T04:48:47.831Z,14.90
2022-10-01T04:51:14.656Z,17.13
2022-10-01T04:53:41.961Z,18.27
2022-10-01T04:56:08.893Z,18.55
2022-10-01T04:58:35.855Z,19.80
2022-10-01T05:01:03.148Z,22.15
2022-10-01T05:03:30.182Z,19.80
2022-10-01T05:05:57.085Z,17.92
2022-10-01T05:08:23.877Z,19.20
2022-10-01T05:10:50.809Z,20.08
2022-10-01T05:13:17.531Z,16.15
2022-10-01T05:15:44.873Z,18.65
2022-10-01T05:18:11.855Z,18.40
2022-10-01T05:20:38.662Z,17.27
2022-10-01T05:23:05.519Z,18.98
2022-10-01T05:25:32.672Z,17.98
2022-10-01T05:28:05.288Z,20.92
2022-10-01T05:30:33.716Z,17.73
2022-10-01T05:33:03.412Z,17.58
2022-10-01T05:35:30.853Z,20.50
2022-10-01T05:37:59.893Z,21.83
2022-10-01T05:40:28.783Z,17.42
2022-10-01T05:42:56.978Z,17.95
2022-10-01T05:45:24.672Z,20.90
2022-10-01T05:48:08.532Z,16.77
2022-10-01T05:50:40.245Z,23.05
2022-10-01T05:53:08.417Z,19.98
2022-10-01T05:55:35.850Z,18.10
2022-10-01T05:58:05.498Z,19.23
2022-10-01T06:00:33.737Z,20.98
2022-10-01T06:03:02.689Z,18.80
2022-10-01T06:05:30.948Z,17.42
2022-10-01T06:07:58.599Z,20.58
2022-10-01T06:10:25.804Z,17.85
2022-10-01T06:12:53.026Z,18.73
2022-10-01T06:15:20.139Z,20.50
2022-10-01T06:17:47.007Z,18.80
2022-10-01T06:23:51.811Z,21.42
2022-10-01T06:26:58.557Z,20.98
2022-10-01T06:33:37.075Z,19.33
2022-10-01T06:36:13.496Z,18.17
2022-10-01T06:41:41.219Z,18.67
2022-10-01T06:44:35.601Z,22.15
2022-10-01T06:47:35.410Z,19.70
2022-10-01T06:50:07.962Z,21.65
2022-10-01T06:52:49.936Z,21.35
2022-10-01T06:55:28.994Z,18.90
2022-10-01T06:58:00.247Z,17.80
2022-10-01T07:00:29.168Z,16.90
2022-10-01T07:02:56.489Z,17.48
2022-10-01T07:05:24.462Z,17.75
2022-10-01T07:07:51.836Z,20.30
2022-10-01T07:10:20.918Z,27.60
2022-10-01T07:12:49.297Z,20.52
2022-10-01T07:15:20.210Z,19.35
2022-10-01T07:17:51.712Z,17.25
2022-10-01T07:20:21.142Z,17.75
2022-10-01T07:22:56.201Z,19.42
2022-10-01T07:25:23.324Z,21.75
2022-10-01T07:27:50.144Z,19.15
2022-10-01T07:30:16.952Z,21.08
2022-10-01T07:32:44.962Z,19.25
2022-10-01T07:35:11.757Z,18.08
2022-10-01T07:37:38.538Z,18.83
2022-10-01T07:40:07.615Z,17.80
2022-10-01T07:42:35.654Z,17.92
2022-10-01T07:45:04.301Z,19.52
2022-10-01T07:47:31.461Z,19.30
2022-10-01T07:49:58.182Z,20.38
2022-10-01T07:52:24.959Z,19.63
2022-10-01T07:54:51.972Z,20.58
2022-10-01T07:57:21.528Z,18.85
2022-10-01T07:59:55.520Z,14.88
2022-10-01T08:02:23.016Z,19.92
2022-10-01T08:05:08.610Z,16.23
2022-10-01T08:07:36.302Z,18.05
2022-10-01T08:10:04.482Z,15.50
2022-10-01T08:12:31.403Z,21.30
2022-10-01T08:14:58.386Z,16.48
2022-10-01T08:17:29.396Z,14.40
2022-10-01T08:19:56.618Z,16.92
2022-10-01T08:22:23.595Z,16.33
2022-10-01T08:24:50.362Z,14.07
2022-10-01T08:27:17.182Z,13.82
2022-10-01T08:29:44.171Z,14.00
2022-10-01T08:32:11.291Z,15.90
2022-10-01T08:34:38.296Z,14.35
2022-10-01T08:37:05.441Z,15.02
2022-10-01T08:39:32.270Z,12.77
2022-10-01T08:42:11.571Z,16.92
2022-10-01T08:45:01.901Z,16.20
2022-10-01T08:47:35.038Z,13.63
2022-10-01T08:50:28.546Z,14.43
2022-10-01T08:53:01.791Z,14.80
2022-10-01T08:55:36.342Z,15.88
2022-10-01T08:58:06.870Z,13.88
2022-10-01T09:00:38.814Z,16.83
2022-10-01T09:03:10.124Z,15.30
2022-10-01T09:06:18.377Z,17.33
2022-10-01T09:08:54.545Z,16.20
2022-10-01T09:11:52.511Z,17.38
2022-10-01T09:14:49.661Z,17.95
2022-10-01T09:17:46.601Z,19.60
2022-10-01T09:20:34.952Z,27.10
2022-10-01T09:23:26.603Z,20.52
2022-10-01T09:25:53.998Z,20.95
2022-10-01T09:28:23.521Z,21.65
2022-10-01T09:31:08.974Z,22.15
2022-10-01T09:33:44.385Z,22.95
2022-10-01T09:36:33.428Z,21.42
2022-10-01T09:39:21.935Z,21.27
2022-10-01T09:41:48.700Z,26.08
2022-10-01T09:44:19.081Z,21.33
2022-10-01T09:46:46.983Z,24.55
2022-10-01T09:49:50.373Z,22.05
2022-10-01T09:52:33.195Z,21.50
2022-10-01T09:55:13.048Z,24.98
2022-10-01T09:57:47.658Z,23.73
2022-10-01T10:00:25.767Z,21.40
2022-10-01T10:02:54.604Z,23.15
2022-10-01T10:05:24.619Z,18.58
2022-10-01T10:08:00.254Z,20.20
2022-10-01T10:10:35.621Z,19.75
2022-10-01T10:13:14.681Z,18.13
2022-10-01T10:15:52.606Z,21.85
2022-10-01T10:18:35.602Z,20.27
2022-10-01T10:21:16.415Z,20.20
2022-10-01T10:23:51.712Z,17.92
2022-10-01T10:26:22.168Z,20.88
2022-10-01T10:28:49.049Z,21.70
2022-10-01T10:31:24.442Z,19.45
2022-10-01T10:34:04.957Z,18.52
2022-10-01T10:36:35.626Z,21.77
2022-10-01T10:39:05.848Z,17.27
2022-10-01T10:41:37.982Z,14.40
2022-10-01T10:44:12.807Z,17.98
2022-10-01T10:46:43.980Z,15.82
2022-10-01T10:49:28.504Z,16.88
2022-10-01T10:51:57.135Z,17.45
2022-10-01T10:54:40.034Z,15.40
2022-10-01T10:57:21.110Z,15.18
2022-10-01T10:59:59.919Z,14.82
2022-10-01T11:02:38.260Z,15.93
2022-10-01T11:05:18.167Z,16.88
2022-10-01T11:07:50.619Z,15.18
2022-10-01T11:10:17.424Z,14.40
2022-10-01T11:13:02.852Z,15.77
2022-10-01T11:15:48.578Z,13.38
2022-10-01T11:18:38.785Z,15.20
2022-10-01T11:21:41.765Z,16.33
2022-10-01T11:24:38.054Z,15.15
2022-10-01T11:27:08.817Z,12.38
2022-10-01T11:29:50.748Z,12.30
2022-10-01T11:32:47.093Z,12.50
2022-10-01T11:35:22.103Z,16.48
2022-10-01T11:38:10.659Z,14.02
2022-10-01T11:40:51.480Z,12.45
2022-10-01T11:43:31.844Z,11.30
2022-10-01T11:46:12.089Z,12.20
2022-10-01T11:48:50.414Z,13.50
2022-10-01T11:51:22.893Z,10.60
2022-10-01T11:53:56.028Z,11.07
2022-10-01T11:56:50.871Z,9.40
2022-10-01T11:59:22.559Z,12.73
2022-10-01T12:01:49.436Z,11.45
2022-10-01T12:04:38.124Z,11.02
2022-10-01T12:07:11.024Z,8.38
2022-10-01T12:09:45.562Z,7.28
2022-10-01T12:12:20.554Z,8.05
2022-10-01T12:15:17.009Z,9.90
2022-10-01T12:17:48.870Z,9.70
2022-10-01T12:20:43.805Z,8.45
2022-10-01T12:23:30.353Z,8.70
2022-10-01T12:26:14.588Z,8.98
2022-10-01T12:28:59.338Z,8.52
2022-10-01T12:31:36.107Z,11.20
2022-10-01T12:34:38.443Z,9.75
2022-10-01T12:37:37.670Z,6.38
2022-10-01T12:40:23.270Z,6.47
2022-10-01T12:43:04.210Z,5.65
2022-10-01T12:46:02.845Z,6.22
2022-10-01T12:48:47.592Z,5.95
2022-10-01T12:51:44.707Z,9.63
2022-10-01T12:54:13.456Z,5.13
2022-10-01T12:56:47.966Z,6.13
2022-10-01T12:59:36.974Z,6.65
2022-10-01T13:02:07.951Z,6.65
2022-10-01T13:05:05.040Z,7.32
2022-10-01T13:07:42.671Z,3.83
2022-10-01T13:10:25.715Z,4.45
2022-10-01T13:12:59.066Z,7.57
2022-10-01T13:15:29.636Z,3.63
2022-10-01T13:18:10.153Z,3.40
2022-10-01T13:20:43.543Z,3.70
2022-10-01T13:23:22.103Z,4.70
2022-10-01T13:25:59.143Z,3.47
2022-10-01T13:28:30.753Z,6.57
2022-10-01T13:31:10.693Z,5.82
2022-10-01T13:33:37.874Z,5.68
2022-10-01T13:36:10.614Z,7.63
2022-10-01T13:38:43.541Z,7.50
2022-10-01T13:41:22.463Z,4.32
2022-10-01T13:43:59.723Z,4.75
2022-10-01T13:46:31.266Z,4.82
2022-10-01T13:49:28.685Z,5.32
2022-10-01T13:51:56.473Z,7.28
2022-10-01T13:54:38.254Z,6.50
2022-10-01T13:57:28.485Z,7.40
2022-10-01T14:00:18.498Z,6.05
2022-10-01T14:03:01.480Z,5.97
2022-10-01T14:05:35.091Z,6.73
2022-10-01T14:08:29.502Z,7.60
2022-10-01T14:14:10.927Z,8.77
2022-10-01T14:16:41.956Z,12.75
2022-10-01T14:19:10.442Z,10.20
2022-10-01T14:22:25.200Z,13.80
2022-10-01T14:24:58.511Z,12.98
2022-10-01T14:27:47.820Z,9.30
2022-10-01T14:30:18.619Z,13.25
2022-10-01T14:33:10.275Z,13.13
2022-10-01T14:35:39.223Z,12.80
2022-10-01T14:38:14.771Z,10.88
2022-10-01T14:40:45.493Z,12.80
2022-10-01T14:43:21.054Z,14.48
2022-10-01T14:46:01.092Z,13.23
2022-10-01T14:48:37.832Z,11.00
2022-10-01T14:51:08.153Z,12.27
2022-10-01T14:53:42.579Z,14.02
2022-10-01T14:56:13.528Z,9.18
2022-10-01T14:58:46.635Z,11.13
2022-10-01T15:01:22.038Z,10.43
2022-10-01T15:03:50.595Z,16.13
2022-10-01T15:06:30.226Z,13.85
2022-10-01T15:09:12.477Z,19.25
2022-10-01T15:11:44.243Z,20.27
2022-10-01T15:14:18.316Z,18.05
2022-10-01T15:16:45.893Z,18.52
2022-10-01T15:19:19.408Z,18.70
2022-10-01T15:21:57.952Z,19.88
2022-10-01T15:24:42.060Z,14.93
2022-10-01T15:29:40.160Z,16.13
2022-10-01T15:32:07.790Z,12.98
2022-10-01T15:34:36.407Z,13.90
2022-10-01T15:37:04.148Z,14.88
2022-10-01T15:39:41.144Z,15.32
2022-10-01T15:42:20.529Z,13.48
2022-10-01T15:44:49.516Z,13.25
2022-10-01T15:47:37.454Z,12.27
2022-10-01T15:50:06.600Z,15.20
2022-10-01T15:52:55.672Z,13.85
2022-10-01T15:55:44.295Z,10.93
2022-10-01T15:58:11.621Z,9.98
2022-10-01T16:01:01.112Z,10.18
2022-10-01T16:03:38.830Z,8.05
2022-10-01T16:06:16.264Z,7.45
2022-10-01T16:08:55.352Z,9.15
2022-10-01T16:11:24.139Z,7.63
2022-10-01T16:13:52.772Z,8.68
2022-10-01T16:16:24.445Z,5.80
2022-10-01T16:19:19.074Z,6.10
2022-10-01T16:22:19.289Z,5.60
2022-10-01T16:24:48.766Z,7.72
2022-10-01T16:27:18.955Z,5.75
2022-10-01T16:30:20.935Z,4.45
2022-10-01T16:32:48.533Z,5.85
2022-10-01T16:35:23.296Z,6.40
2022-10-01T16:37:53.290Z,6.85
2022-10-01T16:40:23.872Z,6.97
2022-10-01T16:42:51.123Z,5.43
2022-10-01T16:45:26.859Z,8.48
2022-10-01T16:47:56.966Z,6.63
2022-10-01T16:50:24.287Z,5.00
2022-10-01T16:52:55.709Z,6.80
2022-10-01T16:55:27.665Z,5.20
2022-10-01T16:57:54.925Z,4.97
2022-10-01T17:00:25.682Z,5.00
2022-10-01T17:02:53.716Z,6.38
2022-10-01T17:05:23.411Z,4.65
2022-10-01T17:07:50.144Z,4.05
2022-10-01T17:10:19.231Z,4.75
2022-10-01T17:12:47.751Z,3.85
2022-10-01T17:15:17.549Z,3.45
2022-10-01T17:17:45.543Z,3.50
2022-10-01T17:20:13.306Z,2.90
2022-10-01T17:22:41.093Z,4.10
2022-10-01T17:25:09.369Z,2.85
2022-10-01T17:27:36.408Z,3.75
2022-10-01T17:30:03.311Z,2.05
2022-10-01T17:32:30.096Z,4.00
2022-10-01T17:34:57.082Z,5.93
2022-10-01T17:37:24.016Z,3.53
2022-10-01T17:39:50.994Z,3.53
2022-10-01T17:42:18.121Z,5.82
2022-10-01T17:44:45.076Z,6.43
2022-10-01T17:47:11.888Z,7.30
2022-10-01T17:49:38.818Z,5.85
2022-10-01T17:52:05.825Z,9.07
2022-10-01T17:54:33.307Z,7.25
2022-10-01T17:57:00.341Z,10.05
2022-10-01T17:59:27.173Z,9.50
2022-10-01T18:01:54.397Z,7.45
2022-10-01T18:04:21.655Z,9.60
2022-10-01T18:06:49.252Z,7.93
2022-10-01T18:09:16.030Z,8.27
2022-10-01T18:11:42.969Z,12.57
2022-10-01T18:14:09.801Z,9.73
2022-10-01T18:16:36.733Z,11.63
2022-10-01T18:21:51.191Z,10.10
2022-10-01T18:24:18.311Z,10.30
2022-10-01T18:26:48.821Z,11.18
2022-10-01T18:29:21.228Z,13.88
2022-10-01T18:31:52.137Z,12.07
2022-10-01T18:34:42.059Z,11.05
2022-10-01T18:37:28.520Z,9.35
2022-10-01T18:40:04.235Z,10.43
2022-10-01T18:42:52.715Z,11.55
2022-10-01T18:46:03.997Z,11.75
2022-10-01T18:48:47.409Z,10.18
2022-10-01T18:51:21.904Z,10.63
2022-10-01T18:54:10.675Z,12.13
2022-10-01T18:56:44.787Z,13.43
2022-10-01T18:59:31.397Z,11.95
2022-10-01T19:02:50.595Z,17.08
2022-10-01T19:06:14.807Z,15.25
2022-10-01T19:09:02.768Z,14.38
2022-10-01T19:11:47.241Z,15.30
2022-10-01T19:14:52.569Z,15.55
2022-10-01T19:17:44.446Z,18.40
2022-10-01T19:20:45.938Z,17.17
2022-10-01T19:23:41.498Z,18.85
2022-10-01T19:26:23.931Z,19.33
2022-10-01T19:29:01.834Z,22.05
2022-10-01T19:31:37.469Z,18.40
2022-10-01T19:34:12.637Z,21.42
2022-10-01T19:36:44.143Z,19.70
2022-10-01T19:39:20.319Z,21.80
2022-10-01T19:41:59.254Z,21.20
2022-10-01T19:44:37.171Z,20.27
2022-10-01T19:47:34.844Z,23.20
2022-10-01T19:50:12.498Z,20.92
2022-10-01T19:52:41.304Z,22.25
2022-10-01T19:55:18.214Z,21.98
2022-10-01T19:57:45.837Z,19.95
2022-10-01T20:00:21.817Z,21.77
2022-10-01T20:03:16.104Z,17.85
2022-10-01T20:06:14.511Z,15.60
2022-10-01T20:08:55.491Z,13.32
2022-10-01T20:11:30.891Z,14.05
2022-10-01T20:14:38.566Z,12.95
2022-10-01T20:17:43.280Z,15.60
2022-10-01T20:20:34.811Z,12.13
2022-10-01T20:23:33.329Z,13.80
2022-10-01T20:26:37.559Z,12.35
2022-10-01T20:29:13.024Z,10.60
2022-10-01T20:31:54.258Z,10.02
2022-10-01T20:34:48.859Z,8.80
2022-10-01T20:39:55.674Z,8.48
2022-10-01T20:42:30.710Z,9.02
2022-10-01T20:44:58.479Z,7.70
2022-10-01T20:47:36.584Z,10.68
2022-10-01T20:50:34.732Z,8.95
2022-10-01T20:53:24.914Z,8.25
2022-10-01T20:56:01.973Z,8.20
2022-10-01T20:58:43.464Z,10.38
2022-10-01T21:01:20.688Z,8.68
2022-10-01T21:03:55.319Z,8.95
2022-10-01T21:06:37.427Z,8.85
2022-10-01T21:09:29.738Z,8.00
2022-10-01T21:12:15.271Z,8.13
2022-10-01T21:14:50.483Z,6.57
2022-10-01T21:17:35.685Z,6.70
2022-10-01T21:20:23.539Z,7.47
2022-10-01T21:23:04.448Z,6.32
2022-10-01T21:25:54.740Z,8.13
2022-10-01T21:28:24.824Z,6.75
2022-10-01T21:31:28.714Z,5.60
2022-10-01T21:34:03.004Z,4.43
2022-10-01T21:36:56.975Z,5.32
2022-10-01T21:39:38.195Z,4.22
2022-10-01T21:42:11.459Z,4.88
2022-10-01T21:44:44.329Z,3.75
2022-10-01T21:47:29.552Z,5.85
2022-10-01T21:50:20.985Z,4.13
2022-10-01T21:53:29.995Z,3.55
2022-10-01T21:56:18.195Z,6.43
2022-10-01T21:59:06.012Z,5.15
2022-10-01T22:02:03.824Z,3.58
2022-10-01T22:04:52.725Z,3.03
2022-10-01T22:07:28.200Z,5.13
2022-10-01T22:10:12.030Z,5.57
2022-10-01T22:15:23.549Z,3.47
2022-10-01T22:17:53.759Z,3.13
2022-10-01T22:20:26.867Z,5.40
2022-10-01T22:23:01.368Z,3.97
2022-10-01T22:25:30.513Z,4.18
2022-10-01T22:28:03.125Z,3.70
2022-10-01T22:30:34.490Z,5.15
2022-10-01T22:33:16.541Z,3.88
2022-10-01T22:36:07.861Z,3.65
2022-10-01T22:38:41.878Z,3.83
2022-10-01T22:41:17.396Z,3.00
2022-10-01T22:43:45.784Z,4.07
2022-10-01T22:46:37.518Z,3.47
2022-10-01T22:49:29.595Z,1.75
2022-10-01T22:52:13.669Z,3.22
2022-10-01T22:55:12.550Z,3.15
2022-10-01T22:57:58.954Z,3.78
2022-10-01T23:00:26.260Z,2.40
2022-10-01T23:03:11.474Z,2.75
2022-10-01T23:05:44.559Z,2.05
2022-10-01T23:08:19.529Z,2.07
2022-10-01T23:11:10.483Z,3.17
2022-10-01T23:14:02.132Z,1.75
2022-10-01T23:16:41.129Z,2.78
2022-10-01T23:19:12.862Z,1.98
2022-10-01T23:21:48.619Z,1.92
2022-10-01T23:24:25.280Z,2.65
2022-10-01T23:27:10.252Z,1.67
2022-10-01T23:30:02.765Z,3.03
2022-10-01T23:32:35.556Z,2.03
2022-10-01T23:35:14.345Z,1.73
2022-10-01T23:38:19.220Z,2.50
2022-10-01T23:40:48.299Z,1.90
2022-10-01T23:43:23.411Z,2.72
2022-10-01T23:45:58.491Z,2.63
2022-10-01T23:48:36.627Z,2.55
2022-10-01T23:51:12.647Z,4.82
2022-10-01T23:53:49.652Z,1.80
2022-10-01T23:56:44.495Z,1.50
2022-10-01T23:59:33.778Z,2.00
